Terminal Aerodrome Forecast
Issued by NWS Knoxville/Tri Cities, TN

Home | Current Version | Previous Version | Text Only | Print | Product List | Glossary On
Versions: 1 2 3 4 5 6 7 8 9 10 11 12 13
000
FTUS44 KMRX 241720
TAFCHA
TAF
KCHA 241720Z 2418/2518 18005KT P6SM SCT030 BKN200
     FM250100 VRB02KT P6SM FEW050 BKN200
     FM250900 00000KT P6SM BKN050
     FM251600 22003KT P6SM SCT050 BKN120=

USA.gov is the U.S. government's official web portal to all federal, state and local government web resources and services.